createdAt,value
2022-09-12T00:00:46.306Z,69.87
2022-09-12T00:03:17.830Z,69.63
2022-09-12T00:05:50.123Z,70.12
2022-09-12T00:08:21.610Z,69.71
2022-09-12T00:10:53.489Z,69.49
2022-09-12T00:13:25.862Z,69.29
2022-09-12T00:15:57.247Z,68.79
2022-09-12T00:18:30.379Z,68.53
2022-09-12T00:21:06.242Z,68.97
2022-09-12T00:23:37.822Z,69.47
2022-09-12T00:26:10.241Z,69.80
2022-09-12T00:28:43.332Z,69.86
2022-09-12T00:31:18.195Z,69.70
2022-09-12T00:33:49.844Z,69.93
2022-09-12T00:36:24.030Z,69.97
2022-09-12T00:38:56.128Z,70.45
2022-09-12T00:41:30.407Z,70.28
2022-09-12T00:44:03.998Z,69.73
2022-09-12T00:46:41.836Z,70.23
2022-09-12T00:49:17.315Z,70.14
2022-09-12T00:51:52.576Z,69.67
2022-09-12T00:54:28.318Z,70.12
2022-09-12T00:57:03.504Z,70.54
2022-09-12T00:59:40.948Z,70.06
2022-09-12T01:02:12.711Z,70.24
2022-09-12T01:04:45.872Z,70.32
2022-09-12T01:07:17.509Z,70.45
2022-09-12T01:09:49.592Z,70.76
2022-09-12T01:12:21.058Z,70.94
2022-09-12T01:14:52.703Z,71.33
2022-09-12T01:17:26.856Z,70.57
2022-09-12T01:20:28.801Z,70.91
2022-09-12T01:23:37.388Z,71.45
2022-09-12T01:26:25.188Z,71.12
2022-09-12T01:29:14.767Z,71.58
2022-09-12T01:31:53.089Z,71.67
2022-09-12T01:34:30.601Z,71.61
2022-09-12T01:37:10.480Z,72.08
2022-09-12T01:39:51.354Z,72.17
2022-09-12T01:42:28.550Z,72.33
2022-09-12T01:45:06.830Z,71.70
2022-09-12T01:47:43.635Z,71.96
2022-09-12T01:50:20.306Z,72.42
2022-09-12T01:52:55.430Z,72.26
2022-09-12T01:55:31.071Z,72.75
2022-09-12T01:58:09.605Z,72.90
2022-09-12T02:00:46.292Z,72.60
2022-09-12T02:03:20.526Z,72.20
2022-09-12T02:05:55.134Z,72.31
2022-09-12T02:08:30.764Z,72.46
2022-09-12T02:11:08.381Z,72.68
2022-09-12T02:13:43.503Z,73.03
2022-09-12T02:16:20.622Z,72.70
2022-09-12T02:18:57.814Z,72.63
2022-09-12T02:21:33.320Z,72.46
2022-09-12T02:24:10.241Z,72.56
2022-09-12T02:26:48.822Z,72.68
2022-09-12T02:29:21.114Z,72.56
2022-09-12T02:31:56.801Z,72.52
2022-09-12T02:34:41.330Z,72.94
2022-09-12T02:37:20.655Z,73.19
2022-09-12T02:39:53.802Z,72.57
2022-09-12T02:42:26.205Z,73.14
2022-09-12T02:44:58.901Z,72.97
2022-09-12T02:47:36.082Z,73.52
2022-09-12T02:50:09.635Z,74.02
2022-09-12T02:52:42.322Z,74.29
2022-09-12T02:55:15.459Z,73.58
2022-09-12T02:57:46.851Z,73.50
2022-09-12T03:00:19.147Z,73.69
2022-09-12T03:03:18.802Z,73.62
2022-09-12T03:05:57.404Z,73.26
2022-09-12T03:09:01.729Z,73.07
2022-09-12T03:11:57.165Z,73.26
2022-09-12T03:14:37.668Z,73.39
2022-09-12T03:17:19.575Z,73.07
2022-09-12T03:20:00.284Z,73.62
2022-09-12T03:22:40.297Z,73.92
2022-09-12T03:25:17.831Z,73.76
2022-09-12T03:27:58.701Z,73.11
2022-09-12T03:30:33.989Z,72.94
2022-09-12T03:33:05.420Z,73.74
2022-09-12T03:35:36.757Z,73.89
2022-09-12T03:38:08.511Z,73.71
2022-09-12T03:40:40.519Z,74.07
2022-09-12T03:43:12.824Z,74.12
2022-09-12T03:45:44.333Z,73.73
2022-09-12T03:48:15.662Z,74.09
2022-09-12T03:50:46.872Z,74.73
2022-09-12T03:53:18.543Z,74.76
2022-09-12T03:55:49.903Z,74.52
2022-09-12T03:58:21.323Z,74.65
2022-09-12T04:00:53.147Z,74.23
2022-09-12T04:03:24.902Z,74.45
2022-09-12T04:05:59.028Z,74.34
2022-09-12T04:08:30.395Z,74.46
2022-09-12T04:11:07.979Z,74.79
2022-09-12T04:13:40.252Z,74.91
2022-09-12T04:16:13.363Z,74.88
2022-09-12T04:18:46.223Z,74.69
2022-09-12T04:21:19.680Z,74.99
2022-09-12T04:23:51.327Z,74.99
2022-09-12T04:26:23.793Z,74.93
2022-09-12T04:28:57.956Z,74.91
2022-09-12T04:31:30.552Z,74.63
2022-09-12T04:34:02.877Z,74.46
2022-09-12T04:36:35.080Z,74.44
2022-09-12T04:39:08.078Z,74.75
2022-09-12T04:41:41.500Z,74.97
2022-09-12T04:44:15.906Z,74.81
2022-09-12T04:46:49.129Z,74.47
2022-09-12T04:49:20.806Z,74.28
2022-09-12T04:51:55.142Z,74.34
2022-09-12T04:54:27.362Z,74.82
2022-09-12T04:56:59.909Z,74.53
2022-09-12T04:59:31.303Z,74.20
2022-09-12T05:02:02.946Z,74.16
2022-09-12T05:04:35.216Z,74.43
2022-09-12T05:07:07.293Z,74.85
2022-09-12T05:09:39.313Z,75.02
2022-09-12T05:12:10.922Z,75.43
2022-09-12T05:14:42.319Z,75.46
2022-09-12T05:17:13.804Z,75.23
2022-09-12T05:19:45.292Z,74.48
2022-09-12T05:22:16.581Z,74.20
2022-09-12T05:24:50.732Z,74.88
2022-09-12T05:27:22.197Z,75.09
2022-09-12T05:29:53.765Z,74.63
2022-09-12T05:32:25.197Z,74.58
2022-09-12T05:34:56.572Z,74.26
2022-09-12T05:37:29.122Z,74.11
2022-09-12T05:40:00.632Z,74.62
2022-09-12T05:42:34.501Z,74.35
2022-09-12T05:45:06.594Z,73.96
2022-09-12T05:47:38.040Z,74.24
2022-09-12T05:50:12.695Z,74.73
2022-09-12T05:52:42.514Z,74.83
2022-09-12T05:55:15.457Z,74.24
2022-09-12T05:57:48.859Z,74.47
2022-09-12T06:00:22.287Z,74.18
2022-09-12T06:02:58.245Z,73.62
2022-09-12T06:05:29.800Z,73.04
2022-09-12T06:08:01.193Z,73.32
2022-09-12T06:10:32.596Z,73.21
2022-09-12T06:13:04.628Z,73.00
2022-09-12T06:15:36.407Z,72.83
2022-09-12T06:18:08.085Z,72.36
2022-09-12T06:20:40.560Z,72.02
2022-09-12T06:23:12.063Z,72.41
2022-09-12T06:25:50.506Z,72.34
2022-09-12T06:28:23.383Z,72.45
2022-09-12T06:30:55.268Z,71.93
2022-09-12T06:33:27.319Z,72.09
2022-09-12T06:36:03.845Z,71.86
2022-09-12T06:38:35.997Z,71.41
2022-09-12T06:41:09.637Z,71.42
2022-09-12T06:43:41.770Z,70.86
2022-09-12T06:46:13.908Z,70.91
2022-09-12T06:48:47.245Z,70.74
2022-09-12T06:51:20.344Z,70.78
2022-09-12T06:53:52.935Z,70.77
2022-09-12T06:56:26.755Z,70.16
2022-09-12T06:59:00.490Z,70.14
2022-09-12T07:01:33.394Z,69.82
2022-09-12T07:04:06.081Z,69.71
2022-09-12T07:06:42.447Z,69.43
2022-09-12T07:09:16.652Z,69.50
2022-09-12T07:11:49.084Z,69.27
2022-09-12T07:14:20.579Z,69.54
2022-09-12T07:16:52.015Z,69.67
2022-09-12T07:19:24.968Z,69.47
2022-09-12T07:21:58.819Z,69.10
2022-09-12T07:24:30.530Z,69.07
2022-09-12T07:27:02.077Z,69.59
2022-09-12T07:29:36.968Z,69.27
2022-09-12T07:32:10.158Z,68.69
2022-09-12T07:34:41.727Z,68.49
2022-09-12T07:37:12.989Z,68.62
2022-09-12T07:39:44.466Z,68.74
2022-09-12T07:42:15.965Z,68.37
2022-09-12T07:44:47.379Z,68.31
2022-09-12T07:47:19.617Z,68.82
2022-09-12T07:49:51.121Z,68.46
2022-09-12T07:52:22.676Z,68.15
2022-09-12T07:54:54.421Z,68.43
2022-09-12T07:57:27.181Z,68.23
2022-09-12T08:00:36.152Z,68.12
2022-09-12T08:03:07.673Z,67.90
2022-09-12T08:05:39.168Z,67.78
2022-09-12T08:08:10.792Z,67.60
2022-09-12T08:10:42.356Z,67.58
2022-09-12T08:13:13.816Z,67.35
2022-09-12T08:15:45.083Z,67.60
2022-09-12T08:18:16.462Z,67.63
2022-09-12T08:20:48.019Z,67.47
2022-09-12T08:23:23.724Z,67.11
2022-09-12T08:25:57.015Z,67.11
2022-09-12T08:28:29.078Z,66.96
2022-09-12T08:31:04.307Z,66.80
2022-09-12T08:33:36.459Z,66.77
2022-09-12T08:36:14.455Z,66.20
2022-09-12T08:38:47.853Z,65.89
2022-09-12T08:41:28.712Z,65.90
2022-09-12T08:44:19.565Z,65.63
2022-09-12T08:47:07.147Z,65.08
2022-09-12T08:49:47.149Z,64.53
2022-09-12T08:52:23.442Z,64.55
2022-09-12T08:54:56.725Z,63.23
2022-09-12T08:57:28.502Z,63.44
2022-09-12T09:00:00.938Z,63.46
2022-09-12T09:06:41.168Z,61.20
2022-09-12T09:09:32.183Z,60.51
2022-09-12T09:12:22.904Z,60.81
2022-09-12T09:15:19.335Z,59.67
2022-09-12T09:18:00.507Z,59.59
2022-09-12T09:20:46.002Z,59.29
2022-09-12T09:23:36.067Z,58.83
2022-09-12T09:29:43.080Z,58.29
2022-09-12T09:32:19.953Z,56.97
2022-09-12T09:34:53.041Z,56.14
2022-09-12T09:37:33.142Z,55.94
2022-09-12T09:40:19.365Z,56.01
2022-09-12T09:42:58.290Z,56.39
2022-09-12T09:45:30.939Z,56.24
2022-09-12T09:48:12.757Z,56.73
2022-09-12T09:50:44.577Z,56.55
2022-09-12T09:53:28.069Z,56.41
2022-09-12T09:56:02.059Z,56.66
2022-09-12T09:58:35.227Z,56.74
2022-09-12T10:01:13.930Z,57.08
2022-09-12T10:03:51.898Z,57.36
2022-09-12T10:06:32.631Z,57.12
2022-09-12T10:09:22.432Z,56.90
2022-09-12T10:11:56.192Z,56.82
2022-09-12T10:14:38.069Z,56.40
2022-09-12T10:17:34.509Z,56.45
2022-09-12T10:20:26.901Z,56.57
2022-09-12T10:22:58.601Z,56.83
2022-09-12T10:25:30.383Z,56.92
2022-09-12T10:28:03.424Z,57.02
2022-09-12T10:30:35.315Z,56.22
2022-09-12T10:33:13.269Z,56.68
2022-09-12T10:35:50.246Z,56.67
2022-09-12T10:38:28.344Z,56.59
2022-09-12T10:41:03.877Z,56.60
2022-09-12T10:43:40.359Z,56.87
2022-09-12T10:46:32.910Z,57.22
2022-09-12T10:49:25.993Z,57.26
2022-09-12T10:52:22.171Z,57.31
2022-09-12T10:54:53.743Z,56.96
2022-09-12T10:57:53.039Z,57.07
2022-09-12T11:00:28.208Z,56.51
2022-09-12T11:03:17.647Z,56.38
2022-09-12T11:05:56.934Z,56.29
2022-09-12T11:08:45.414Z,55.64
2022-09-12T11:11:35.014Z,55.12
2022-09-12T11:14:25.027Z,55.30
2022-09-12T11:17:10.624Z,55.16
2022-09-12T11:20:05.452Z,54.57
2022-09-12T11:22:51.212Z,54.58
2022-09-12T11:25:35.464Z,54.63
2022-09-12T11:28:27.381Z,54.46
2022-09-12T11:31:16.410Z,54.52
2022-09-12T11:33:49.426Z,54.18
2022-09-12T11:36:33.188Z,53.46
2022-09-12T11:39:14.834Z,53.77
2022-09-12T11:41:51.526Z,53.43
2022-09-12T11:44:28.819Z,53.45
2022-09-12T11:47:02.808Z,53.78
2022-09-12T11:49:40.180Z,53.79
2022-09-12T11:52:17.629Z,53.23
2022-09-12T11:54:54.033Z,53.38
2022-09-12T11:57:32.673Z,53.46
2022-09-12T12:00:09.139Z,52.69
2022-09-12T12:02:49.881Z,52.57
2022-09-12T12:05:25.937Z,52.36
2022-09-12T12:07:59.313Z,52.24
2022-09-12T12:10:37.452Z,51.98
2022-09-12T12:13:20.697Z,52.47
2022-09-12T12:15:57.808Z,52.48
2022-09-12T12:18:31.372Z,52.43
2022-09-12T12:21:33.996Z,52.39
2022-09-12T12:24:17.343Z,52.05
2022-09-12T12:27:03.495Z,51.60
2022-09-12T12:29:44.279Z,51.49
2022-09-12T12:32:26.911Z,51.71
2022-09-12T12:35:41.026Z,51.89
2022-09-12T12:38:32.868Z,51.39
2022-09-12T12:41:41.119Z,51.06
2022-09-12T12:44:54.150Z,51.05
2022-09-12T12:47:28.402Z,51.05
2022-09-12T12:50:03.065Z,50.35
2022-09-12T12:52:49.272Z,50.29
2022-09-12T12:55:26.718Z,49.27
2022-09-12T12:57:59.619Z,48.42
2022-09-12T13:00:39.644Z,49.44
2022-09-12T13:03:24.446Z,49.94
2022-09-12T13:06:01.405Z,49.74
2022-09-12T13:08:35.286Z,49.39
2022-09-12T13:11:13.586Z,49.94
2022-09-12T13:13:51.981Z,49.77
2022-09-12T13:16:36.649Z,50.15
2022-09-12T13:19:18.003Z,49.70
2022-09-12T13:22:02.095Z,49.56
2022-09-12T13:24:33.518Z,48.91
2022-09-12T13:27:17.591Z,49.08
2022-09-12T13:29:51.298Z,48.95
2022-09-12T13:32:23.119Z,48.65
2022-09-12T13:35:12.108Z,49.10
2022-09-12T13:37:51.529Z,49.92
2022-09-12T13:40:34.717Z,50.08
2022-09-12T13:43:26.096Z,50.75
2022-09-12T13:45:57.630Z,51.28
2022-09-12T13:48:29.333Z,51.57
2022-09-12T13:51:02.651Z,51.06
2022-09-12T13:53:42.556Z,51.19
2022-09-12T13:56:19.677Z,50.74
2022-09-12T13:58:59.159Z,50.24
2022-09-12T14:01:42.587Z,49.89
2022-09-12T14:04:37.374Z,49.77
2022-09-12T14:07:15.625Z,50.05
2022-09-12T14:09:54.160Z,49.62
2022-09-12T14:12:31.321Z,49.71
2022-09-12T14:15:03.358Z,49.36
2022-09-12T14:17:39.908Z,49.32
2022-09-12T14:20:18.841Z,49.61
2022-09-12T14:22:51.293Z,48.31
2022-09-12T14:25:25.457Z,47.92
2022-09-12T14:27:58.921Z,48.04
2022-09-12T14:30:32.302Z,48.62
2022-09-12T14:33:18.309Z,48.90
2022-09-12T14:35:51.670Z,49.08
2022-09-12T14:38:33.385Z,49.38
2022-09-12T14:41:08.439Z,49.63
2022-09-12T14:43:42.632Z,49.69
2022-09-12T14:46:24.166Z,49.24
2022-09-12T14:49:00.868Z,49.63
2022-09-12T14:51:38.179Z,49.93
2022-09-12T14:54:36.453Z,49.78
2022-09-12T14:57:29.151Z,49.56
2022-09-12T15:00:11.623Z,49.55
2022-09-12T15:02:44.807Z,49.82
2022-09-12T15:05:22.205Z,49.70
2022-09-12T15:07:59.582Z,49.91
2022-09-12T15:10:33.698Z,49.88
2022-09-12T15:13:26.109Z,49.76
2022-09-12T15:15:59.446Z,49.97
2022-09-12T15:18:31.556Z,49.91
2022-09-12T15:21:06.393Z,50.19
2022-09-12T15:23:42.040Z,50.03
2022-09-12T15:26:17.609Z,49.98
2022-09-12T15:28:49.588Z,50.10
2022-09-12T15:31:26.928Z,50.26
2022-09-12T15:33:59.715Z,50.49
2022-09-12T15:36:32.148Z,50.55
2022-09-12T15:39:03.772Z,50.65
2022-09-12T15:41:37.352Z,50.85
2022-09-12T15:44:12.592Z,51.32
2022-09-12T15:46:44.233Z,51.64
2022-09-12T15:49:15.911Z,51.56
2022-09-12T15:51:47.423Z,51.25
2022-09-12T15:54:21.198Z,51.33
2022-09-12T15:56:53.136Z,51.57
2022-09-12T15:59:24.647Z,51.68
2022-09-12T16:01:56.087Z,51.72
2022-09-12T16:04:30.713Z,51.56
2022-09-12T16:07:02.148Z,51.81
2022-09-12T16:09:34.550Z,51.80
2022-09-12T16:12:06.125Z,51.35
2022-09-12T16:14:37.637Z,51.28
2022-09-12T16:17:09.529Z,51.33
2022-09-12T16:19:41.146Z,51.85
2022-09-12T16:22:12.983Z,52.03
2022-09-12T16:24:44.819Z,51.98
2022-09-12T16:27:18.021Z,52.11
2022-09-12T16:29:49.665Z,52.27
2022-09-12T16:32:21.168Z,51.95
2022-09-12T16:34:52.609Z,51.73
2022-09-12T16:37:24.070Z,51.51
2022-09-12T16:39:55.993Z,51.71
2022-09-12T16:42:27.520Z,52.20
2022-09-12T16:44:58.946Z,52.40
2022-09-12T16:47:32.559Z,52.71
2022-09-12T16:50:03.950Z,52.76
2022-09-12T16:52:35.724Z,53.15
2022-09-12T16:55:08.475Z,53.40
2022-09-12T16:57:40.331Z,53.91
2022-09-12T17:00:14.397Z,53.94
2022-09-12T17:02:45.954Z,54.00
2022-09-12T17:05:17.984Z,53.96
2022-09-12T17:07:49.628Z,54.83
2022-09-12T17:10:21.265Z,55.14
2022-09-12T17:12:52.548Z,55.11
2022-09-12T17:15:23.929Z,55.38
2022-09-12T17:17:55.328Z,55.64
2022-09-12T17:20:26.870Z,55.38
2022-09-12T17:22:59.094Z,55.12
2022-09-12T17:25:30.733Z,55.25
2022-09-12T17:28:05.475Z,55.46
2022-09-12T17:30:39.425Z,56.02
2022-09-12T17:33:11.616Z,56.42
2022-09-12T17:35:43.755Z,56.79
2022-09-12T17:38:19.366Z,56.90
2022-09-12T17:40:59.376Z,56.75
2022-09-12T17:43:32.370Z,56.76
2022-09-12T17:46:04.053Z,57.11
2022-09-12T17:48:35.596Z,57.17
2022-09-12T17:51:13.788Z,57.43
2022-09-12T17:53:45.798Z,57.27
2022-09-12T17:56:17.603Z,57.22
2022-09-12T17:58:50.252Z,57.69
2022-09-12T18:01:39.493Z,57.60
2022-09-12T18:04:11.843Z,57.81
2022-09-12T18:06:48.875Z,57.96
2022-09-12T18:09:23.263Z,58.19
2022-09-12T18:11:55.933Z,57.94
2022-09-12T18:14:29.799Z,58.21
2022-09-12T18:17:01.950Z,58.17
2022-09-12T18:19:34.512Z,58.45
2022-09-12T18:22:07.705Z,58.45
2022-09-12T18:24:40.476Z,58.30
2022-09-12T18:27:12.524Z,58.39
2022-09-12T18:29:55.144Z,58.23
2022-09-12T18:32:36.098Z,58.26
2022-09-12T18:35:09.222Z,58.52
2022-09-12T18:37:41.572Z,58.41
2022-09-12T18:40:14.393Z,58.57
2022-09-12T18:42:46.627Z,58.44
2022-09-12T18:45:18.522Z,58.26
2022-09-12T18:47:50.334Z,58.32
2022-09-12T18:50:23.869Z,58.30
2022-09-12T18:52:59.777Z,58.32
2022-09-12T18:55:32.441Z,58.06
2022-09-12T18:58:04.429Z,57.56
2022-09-12T19:00:37.030Z,58.09
2022-09-12T19:03:09.115Z,58.12
2022-09-12T19:05:41.809Z,58.42
2022-09-12T19:08:13.780Z,58.83
2022-09-12T19:10:45.754Z,59.05
2022-09-12T19:13:18.535Z,59.39
2022-09-12T19:15:50.736Z,59.83
2022-09-12T19:18:22.511Z,59.89
2022-09-12T19:20:57.192Z,60.10
2022-09-12T19:23:29.421Z,60.01
2022-09-12T19:26:04.566Z,60.05
2022-09-12T19:28:36.990Z,60.36
2022-09-12T19:31:11.166Z,61.07
2022-09-12T19:33:45.230Z,61.02
2022-09-12T19:39:12.458Z,59.92
2022-09-12T19:41:44.513Z,60.25
2022-09-12T19:44:16.419Z,60.63
2022-09-12T19:46:48.174Z,61.41
2022-09-12T19:49:19.720Z,61.41
2022-09-12T19:51:51.274Z,61.48
2022-09-12T19:54:23.023Z,61.48
2022-09-12T19:56:54.807Z,61.70
2022-09-12T19:59:26.699Z,61.80
2022-09-12T20:01:58.412Z,61.74
2022-09-12T20:04:30.181Z,61.75
2022-09-12T20:07:01.955Z,61.74
2022-09-12T20:09:35.764Z,61.67
2022-09-12T20:12:07.934Z,61.25
2022-09-12T20:14:39.240Z,60.95
2022-09-12T20:17:11.053Z,61.21
2022-09-12T20:19:42.698Z,60.98
2022-09-12T20:22:14.337Z,60.60
2022-09-12T20:24:46.072Z,60.53
2022-09-12T20:27:17.681Z,60.38
2022-09-12T20:29:49.310Z,60.69
2022-09-12T20:32:20.846Z,60.83
2022-09-12T20:34:52.395Z,60.94
2022-09-12T20:37:24.359Z,61.31
2022-09-12T20:39:57.579Z,61.69
2022-09-12T20:42:29.956Z,61.79
2022-09-12T20:45:01.408Z,61.35
2022-09-12T20:47:32.890Z,61.19
2022-09-12T20:50:04.518Z,61.25
2022-09-12T20:52:36.094Z,60.97
2022-09-12T20:55:08.591Z,60.57
2022-09-12T20:57:39.993Z,60.62
2022-09-12T21:00:14.334Z,60.80
2022-09-12T21:02:45.953Z,60.94
2022-09-12T21:05:17.760Z,61.29
2022-09-12T21:07:49.191Z,61.11
2022-09-12T21:10:20.749Z,61.71
2022-09-12T21:12:53.825Z,61.92
2022-09-12T21:15:25.267Z,61.86
2022-09-12T21:17:57.005Z,61.61
2022-09-12T21:20:28.366Z,61.83
2022-09-12T21:23:00.108Z,61.88
2022-09-12T21:25:32.786Z,61.97
2022-09-12T21:28:04.702Z,61.95
2022-09-12T21:30:36.102Z,61.67
2022-09-12T21:33:07.878Z,62.05
2022-09-12T21:35:39.325Z,62.25
2022-09-12T21:38:10.795Z,62.51
2022-09-12T21:40:42.166Z,62.39
2022-09-12T21:43:14.095Z,62.40
2022-09-12T21:45:45.799Z,62.66
2022-09-12T21:48:17.293Z,62.51
2022-09-12T21:50:53.373Z,62.96
2022-09-12T21:53:24.720Z,63.45
2022-09-12T21:55:56.181Z,63.59
2022-09-12T21:58:30.800Z,63.80
2022-09-12T22:01:03.644Z,63.76
2022-09-12T22:03:35.584Z,63.61
2022-09-12T22:06:08.841Z,63.68
2022-09-12T22:08:40.712Z,63.34
2022-09-12T22:11:13.428Z,63.48
2022-09-12T22:13:45.517Z,63.71
2022-09-12T22:16:18.211Z,63.99
2022-09-12T22:18:50.992Z,63.92
2022-09-12T22:21:24.590Z,63.74
2022-09-12T22:24:13.301Z,63.93
2022-09-12T22:26:46.438Z,64.08
2022-09-12T22:29:19.357Z,64.19
2022-09-12T22:31:51.008Z,64.26
2022-09-12T22:34:22.573Z,64.62
2022-09-12T22:36:53.926Z,64.41
2022-09-12T22:39:25.819Z,64.85
2022-09-12T22:41:57.202Z,64.58
2022-09-12T22:44:28.511Z,64.46
2022-09-12T22:47:00.756Z,64.35
2022-09-12T22:49:32.122Z,64.11
2022-09-12T22:52:04.121Z,64.43
2022-09-12T22:54:35.554Z,64.71
2022-09-12T22:57:07.274Z,65.07
2022-09-12T22:59:39.278Z,65.22
2022-09-12T23:02:10.626Z,65.59
2022-09-12T23:04:41.972Z,65.14
2022-09-12T23:07:13.359Z,65.69
2022-09-12T23:09:46.371Z,65.51
2022-09-12T23:12:17.627Z,65.29
2022-09-12T23:14:49.132Z,64.84
2022-09-12T23:17:20.536Z,65.50
2022-09-12T23:19:52.606Z,65.62
2022-09-12T23:22:24.021Z,65.50
2022-09-12T23:24:55.382Z,65.95
2022-09-12T23:27:29.503Z,66.41
2022-09-12T23:30:00.870Z,66.34
2022-09-12T23:32:33.572Z,67.01
2022-09-12T23:35:05.665Z,67.19
2022-09-12T23:37:37.001Z,66.72
2022-09-12T23:40:11.411Z,65.93
2022-09-12T23:42:42.854Z,66.00
2022-09-12T23:45:14.605Z,65.88
2022-09-12T23:47:46.020Z,65.99
2022-09-12T23:50:17.516Z,65.82
2022-09-12T23:52:48.959Z,65.93
2022-09-12T23:55:20.479Z,66.64
2022-09-12T23:57:52.044Z,66.71
